Time;durP1;ratioP1;P1;durP2;ratioP2;P2;SDS_P1;SDS_P2;PMS_P1;PMS_P2;Temp;Humidity;BMP_temperature;BMP_pressure;BME280_temperature;BME280_humidity;BME280_pressure;Samples;Min_cycle;Max_cycle;Signal;HPM_P1;HPM_P2
2023/02/22 05:52:25;;;;;;;13.23;9.35;;;14.20;68.40;;;;;;4734783;30;20387;-77
2023/02/22 05:55:00;;;;;;;12.98;7.90;;;14.10;68.70;;;;;;4736312;30;20143;-80
2023/02/22 05:57:39;;;;;;;13.60;8.48;;;14.00;68.10;;;;;;4748843;30;20118;-75
2023/02/22 06:00:09;;;;;;;12.52;7.65;;;14.10;68.80;;;;;;4737488;30;20048;-85
2023/02/22 06:02:34;;;;;;;13.20;7.35;;;14.20;68.90;;;;;;4737258;30;20052;-81
2023/02/22 06:05:03;;;;;;;12.55;7.15;;;14.30;69.10;;;;;;4737342;30;20130;-80
2023/02/22 06:07:28;;;;;;;10.13;6.25;;;14.50;69.50;;;;;;4737564;30;20126;-76
2023/02/22 06:09:54;;;;;;;11.88;6.95;;;14.60;69.40;;;;;;4751316;30;20082;-79
2023/02/22 06:12:20;;;;;;;15.20;6.38;;;14.70;69.40;;;;;;4736422;30;20056;-79
2023/02/22 06:14:45;;;;;;;17.50;6.80;;;14.90;69.60;;;;;;4737108;30;20063;-78
2023/02/22 06:17:13;;;;;;;15.68;7.35;;;14.90;69.70;;;;;;4751012;30;20478;-82
2023/02/22 06:19:39;;;;;;;14.30;5.95;;;15.00;69.90;;;;;;4721851;30;20080;-83
2023/02/22 06:22:06;;;;;;;13.75;5.75;;;15.00;70.00;;;;;;4723875;30;20056;-81
2023/02/22 06:24:32;;;;;;;13.30;6.07;;;15.00;70.20;;;;;;4736451;30;20139;-81
2023/02/22 06:27:00;;;;;;;11.65;5.80;;;15.10;70.60;;;;;;4720740;30;20407;-82
2023/02/22 06:29:27;;;;;;;19.08;6.13;;;15.10;70.80;;;;;;4744063;30;20134;-81
2023/02/22 06:31:54;;;;;;;23.58;7.25;;;15.10;71.00;;;;;;4721204;30;20178;-81
2023/02/22 06:34:23;;;;;;;27.58;7.47;;;15.10;71.30;;;;;;4735981;30;20053;-82
2023/02/22 06:36:49;;;;;;;26.27;7.22;;;15.20;71.60;;;;;;4721345;30;20058;-82
2023/02/22 06:39:18;;;;;;;28.50;6.88;;;15.20;71.60;;;;;;4721385;30;20218;-81
2023/02/22 06:41:50;;;;;;;17.02;5.50;;;15.20;71.80;;;;;;4735516;30;20044;-80
2023/02/22 06:44:15;;;;;;;19.17;5.35;;;15.20;71.70;;;;;;4722068;30;20049;-79
2023/02/22 06:46:49;;;;;;;23.98;6.38;;;15.30;71.70;;;;;;4721627;30;20375;-80
2023/02/22 06:49:16;;;;;;;22.35;6.60;;;15.30;71.70;;;;;;4737012;30;20037;-77
2023/02/22 06:51:42;;;;;;;21.08;7.03;;;15.40;71.60;;;;;;4756910;30;20051;-75
2023/02/22 06:54:08;;;;;;;19.30;6.47;;;15.40;71.50;;;;;;4772275;30;20052;-77
2023/02/22 06:56:34;;;;;;;21.13;7.07;;;15.50;71.70;;;;;;4786755;30;20052;-76
2023/02/22 06:59:03;;;;;;;16.30;5.90;;;15.60;72.50;;;;;;4771347;30;20054;-76
2023/02/22 07:01:29;;;;;;;17.08;5.20;;;15.60;71.90;;;;;;4771843;30;20465;-74
2023/02/22 07:03:55;;;;;;;19.05;6.18;;;15.80;71.90;;;;;;4771955;30;20094;-74
2023/02/22 07:06:21;;;;;;;19.75;5.97;;;15.90;72.00;;;;;;4775375;30;20602;-75
2023/02/22 07:08:48;;;;;;;17.63;6.82;;;16.00;72.00;;;;;;4776039;30;20105;-74
2023/02/22 07:11:15;;;;;;;19.20;6.45;;;15.60;69.10;;;;;;4776436;30;20055;-74
2023/02/22 07:13:40;;;;;;;29.83;7.00;;;15.70;71.20;;;;;;4775469;30;20060;-74
2023/02/22 07:16:06;;;;;;;27.10;8.13;;;15.80;71.50;;;;;;4775396;30;20039;-76
2023/02/22 07:18:32;;;;;;;34.25;8.85;;;15.90;71.40;;;;;;4775707;30;20436;-76
2023/02/22 07:20:57;;;;;;;22.70;7.75;;;16.00;70.80;;;;;;4789469;29;20048;-75
2023/02/22 07:23:23;;;;;;;17.67;9.15;;;16.00;70.40;;;;;;4775269;30;20051;-75
2023/02/22 07:25:49;;;;;;;19.15;8.10;;;16.00;70.20;;;;;;4775713;30;20367;-76
2023/02/22 07:28:15;;;;;;;25.40;8.02;;;16.00;70.10;;;;;;4775219;30;20060;-76
2023/02/22 07:30:42;;;;;;;21.35;8.60;;;16.00;70.00;;;;;;4775914;30;20150;-76
2023/02/22 07:33:10;;;;;;;22.35;8.25;;;16.00;69.90;;;;;;4775341;30;20062;-75
2023/02/22 07:35:38;;;;;;;20.13;7.80;;;16.00;69.90;;;;;;4789194;29;20063;-77
2023/02/22 07:38:07;;;;;;;16.48;7.95;;;15.90;69.80;;;;;;4775940;30;20136;-75
2023/02/22 07:40:34;;;;;;;14.77;7.97;;;15.90;69.70;;;;;;4775237;30;20425;-75
2023/02/22 07:43:03;;;;;;;17.27;9.55;;;15.90;69.80;;;;;;4788859;30;20134;-76
2023/02/22 07:45:33;;;;;;;17.63;8.65;;;15.90;69.70;;;;;;4775076;30;20121;-73
2023/02/22 07:48:01;;;;;;;16.55;10.02;;;15.80;69.80;;;;;;4775065;30;20444;-74
2023/02/22 07:50:30;;;;;;;24.00;9.38;;;15.80;70.20;;;;;;4775021;30;20056;-74
2023/02/22 07:52:58;;;;;;;19.15;10.30;;;15.80;70.60;;;;;;4774890;30;20420;-73
2023/02/22 07:55:27;;;;;;;18.67;9.75;;;15.70;70.80;;;;;;4774762;30;20052;-73
2023/02/22 07:57:55;;;;;;;19.52;9.50;;;15.70;70.80;;;;;;4774550;30;20059;-79
2023/02/22 08:00:27;;;;;;;19.02;10.75;;;15.70;70.80;;;;;;4759054;30;20055;-81
2023/02/22 08:02:56;;;;;;;30.90;16.92;;;15.70;70.70;;;;;;4775063;30;20123;-77
2023/02/22 08:05:33;;;;;;;29.75;17.83;;;15.70;70.10;;;;;;4788450;30;20451;-80
2023/02/22 08:07:59;;;;;;;35.10;21.38;;;15.70;69.70;;;;;;4775175;30;20533;-77
2023/02/22 08:10:25;;;;;;;35.95;22.83;;;15.60;69.10;;;;;;4774246;30;20127;-75
2023/02/22 08:12:52;;;;;;;34.50;21.63;;;15.60;68.50;;;;;;4770512;30;20048;-75
2023/02/22 08:15:46;;;;;;;39.28;24.75;;;15.60;68.40;;;;;;4772921;30;20062;-75
2023/02/22 08:18:14;;;;;;;40.05;24.25;;;15.50;68.10;;;;;;4772944;30;20467;-77
2023/02/22 08:20:41;;;;;;;36.17;24.02;;;15.50;68.00;;;;;;4770959;30;20056;-75
2023/02/22 08:23:09;;;;;;;40.10;22.42;;;15.50;68.00;;;;;;4758134;30;20165;-76
2023/02/22 08:25:35;;;;;;;41.35;24.92;;;15.40;68.10;;;;;;4776441;30;20076;-78
2023/02/22 08:28:04;;;;;;;38.47;22.95;;;15.40;68.20;;;;;;4774393;30;20062;-78
2023/02/22 08:30:31;;;;;;;34.85;22.17;;;15.40;68.40;;;;;;4773903;30;20062;-77
2023/02/22 08:32:58;;;;;;;34.15;21.85;;;15.40;68.50;;;;;;4785954;30;20451;-78
2023/02/22 08:35:24;;;;;;;37.00;21.80;;;15.40;68.50;;;;;;4774335;30;20044;-78
2023/02/22 08:37:53;;;;;;;39.10;21.88;;;15.40;68.70;;;;;;4758603;30;20162;-78
2023/02/22 08:40:23;;;;;;;37.60;23.52;;;15.30;68.60;;;;;;4758551;30;20091;-79
2023/02/22 08:42:49;;;;;;;40.13;22.77;;;15.40;68.80;;;;;;4758229;30;20055;-78
2023/02/22 08:45:15;;;;;;;34.30;22.70;;;15.30;68.80;;;;;;4773942;30;20059;-77
2023/02/22 08:47:41;;;;;;;37.58;24.38;;;15.30;68.90;;;;;;4788413;30;20055;-77
2023/02/22 08:50:08;;;;;;;36.92;23.75;;;15.30;69.00;;;;;;4773362;30;20139;-78
2023/02/22 08:52:34;;;;;;;32.53;23.25;;;15.30;69.10;;;;;;4776366;30;20064;-76
2023/02/22 08:55:00;;;;;;;35.63;23.20;;;15.30;69.10;;;;;;4773338;30;20063;-76
2023/02/22 08:57:27;;;;;;;38.92;25.17;;;15.30;69.10;;;;;;4773281;30;20118;-78
2023/02/22 08:59:52;;;;;;;33.95;23.25;;;15.20;69.00;;;;;;4773083;30;20051;-78
2023/02/22 09:02:21;;;;;;;35.38;23.70;;;15.30;69.10;;;;;;4773337;30;20055;-77
2023/02/22 09:04:48;;;;;;;33.22;22.92;;;15.20;69.20;;;;;;4787258;30;20052;-78
2023/02/22 09:07:15;;;;;;;35.33;24.08;;;15.20;69.10;;;;;;4756973;30;20058;-78
2023/02/22 09:09:44;;;;;;;39.03;24.52;;;15.20;69.20;;;;;;4774326;30;20120;-81
2023/02/22 09:12:10;;;;;;;41.47;25.23;;;15.20;69.10;;;;;;4786945;30;20051;-79
2023/02/22 09:14:35;;;;;;;39.25;27.00;;;15.20;69.20;;;;;;4768031;30;20498;-82
2023/02/22 09:17:01;;;;;;;38.22;24.33;;;15.30;69.30;;;;;;4786858;29;20532;-73
2023/02/22 09:19:27;;;;;;;37.38;24.48;;;15.30;69.20;;;;;;4782220;29;20109;-78
2023/02/22 09:21:55;;;;;;;37.45;24.73;;;15.20;69.20;;;;;;4781991;29;20435;-78
2023/02/22 09:24:21;;;;;;;39.47;24.50;;;15.20;69.20;;;;;;4774466;30;20059;-79
2023/02/22 09:26:53;;;;;;;40.38;25.38;;;15.20;69.20;;;;;;4769376;30;20486;-78
2023/02/22 09:29:49;;;;;;;38.72;27.20;;;15.20;69.20;;;;;;4786095;29;20043;-78
2023/02/22 09:32:16;;;;;;;41.33;27.25;;;15.20;69.20;;;;;;4778914;30;20059;-80
2023/02/22 09:34:44;;;;;;;40.20;25.20;;;15.20;69.20;;;;;;4772928;30;20060;-79
2023/02/22 09:37:11;;;;;;;39.95;26.55;;;15.30;69.20;;;;;;4776635;30;20368;-79
2023/02/22 09:39:38;;;;;;;40.75;28.17;;;15.20;69.00;;;;;;4786564;29;20080;-80
2023/02/22 09:42:18;;;;;;;44.67;26.63;;;15.20;69.10;;;;;;4759066;30;20062;-79
2023/02/22 09:45:19;;;;;;;42.28;27.63;;;15.20;69.00;;;;;;4785832;30;20052;-79
2023/02/22 09:47:55;;;;;;;40.63;28.75;;;15.20;68.90;;;;;;4764366;30;20056;-78
2023/02/22 09:50:28;;;;;;;45.33;29.60;;;15.20;68.90;;;;;;4756401;30;20136;-77
2023/02/22 09:53:11;;;;;;;43.53;27.73;;;15.20;69.00;;;;;;4772064;30;20048;-77
2023/02/22 09:55:46;;;;;;;42.88;28.88;;;15.20;68.90;;;;;;4772606;30;20051;-79
2023/02/22 09:58:18;;;;;;;44.85;29.98;;;15.20;69.10;;;;;;4788860;29;20043;-81
2023/02/22 10:00:46;;;;;;;44.80;29.67;;;15.20;69.20;;;;;;4775191;30;20122;-78
2023/02/22 10:03:30;;;;;;;40.50;28.02;;;15.20;69.20;;;;;;4779982;30;20359;-78
2023/02/22 10:06:02;;;;;;;;;;;15.20;69.20;;;;;;4782200;30;20062;-77
2023/02/22 10:08:32;;;;;;;47.85;29.38;;;15.20;69.20;;;;;;4779078;30;20328;-77
2023/02/22 10:11:36;;;;;;;40.65;28.15;;;15.20;69.20;;;;;;4773509;30;20079;-77
2023/02/22 10:14:26;;;;;;;43.83;29.10;;;15.20;69.10;;;;;;4790075;29;20059;-77
2023/02/22 10:17:18;;;;;;;43.15;28.05;;;15.20;68.70;;;;;;4779360;30;20062;-78
2023/02/22 10:20:21;;;;;;;53.95;34.08;;;15.10;69.00;;;;;;4798342;29;20083;-78
2023/02/22 10:22:56;;;;;;;61.28;37.88;;;15.10;68.60;;;;;;4779441;29;20371;-78
2023/02/22 10:25:26;;;;;;;64.80;40.50;;;15.10;68.10;;;;;;4779808;30;20455;-80
2023/02/22 10:27:55;;;;;;;71.38;39.00;;;15.10;67.00;;;;;;4779964;30;20059;-78
2023/02/22 10:30:28;;;;;;;60.83;37.38;;;15.00;66.70;;;;;;4776346;30;20047;-79
2023/02/22 10:33:08;;;;;;;;;;;15.00;66.80;;;;;;4781917;30;20058;-74
2023/02/22 10:35:36;;;;;;;53.80;31.50;;;14.90;67.40;;;;;;4801399;29;19922;-80
2023/02/22 10:38:19;;;;;;;60.25;35.15;;;14.90;67.60;;;;;;4777952;30;21812;-80
2023/02/22 10:40:56;;;;;;;56.55;34.53;;;14.90;67.80;;;;;;4778361;30;20079;-82
2023/02/22 10:43:22;;;;;;;56.60;34.97;;;14.80;68.10;;;;;;4807065;29;20240;-78
2023/02/22 10:46:01;;;;;;;52.22;33.78;;;14.80;68.20;;;;;;4779887;30;20418;-77
2023/02/22 10:48:30;;;;;;;51.40;31.48;;;14.80;68.40;;;;;;4784858;30;20122;-77
2023/02/22 10:51:00;;;;;;;51.67;34.08;;;14.80;68.50;;;;;;4771789;30;20061;-78
2023/02/22 10:53:27;;;;;;;54.08;34.70;;;14.70;68.60;;;;;;4771618;30;20052;-79
2023/02/22 10:56:17;;;;;;;50.72;33.72;;;14.80;68.80;;;;;;4786182;30;20063;-79
2023/02/22 10:58:52;;;;;;;51.17;32.22;;;14.80;68.30;;;;;;4771595;30;20117;-78
2023/02/22 11:01:25;;;;;;;45.95;30.88;;;14.90;68.30;;;;;;4772501;30;20055;-78
2023/02/22 11:04:11;;;;;;;51.50;31.02;;;15.00;68.30;;;;;;4772024;30;20055;-90
2023/02/22 11:06:38;;;;;;;50.83;31.55;;;15.00;68.20;;;;;;4771932;30;20071;-78
2023/02/22 11:09:09;;;;;;;51.50;30.95;;;15.10;68.30;;;;;;4772067;30;20051;-78
2023/02/22 11:11:35;;;;;;;51.00;31.88;;;15.20;68.20;;;;;;4771702;30;20471;-75
2023/02/22 11:14:05;;;;;;;47.70;30.65;;;15.20;68.10;;;;;;4771793;30;20044;-79
2023/02/22 11:16:37;;;;;;;51.95;31.40;;;15.30;68.10;;;;;;4771830;30;20064;-78
2023/02/22 11:19:19;;;;;;;52.90;29.20;;;15.30;68.20;;;;;;4770866;30;20128;-77
2023/02/22 11:21:47;;;;;;;43.97;29.35;;;15.30;67.90;;;;;;4772177;30;20144;-77
2023/02/22 11:24:14;;;;;;;53.45;30.00;;;15.30;68.30;;;;;;4771760;30;20055;-75
2023/02/22 11:26:47;;;;;;;50.97;30.67;;;15.30;68.50;;;;;;4771332;30;20125;-79
2023/02/22 11:29:35;;;;;;;56.78;31.73;;;15.40;68.80;;;;;;4771374;30;20066;-79
2023/02/22 11:32:10;;;;;;;50.83;29.67;;;15.40;68.90;;;;;;4756161;30;20113;-78
2023/02/22 11:34:41;;;;;;;57.30;29.55;;;15.40;68.90;;;;;;4771596;30;20043;-78
2023/02/22 11:37:33;;;;;;;56.28;31.45;;;15.50;69.20;;;;;;4755675;30;20052;-76
2023/02/22 11:40:14;;;;;;;53.83;32.65;;;15.50;68.90;;;;;;4771891;30;20060;-78
2023/02/22 11:42:42;;;;;;;56.28;32.20;;;15.60;69.50;;;;;;4771178;30;20455;-73
2023/02/22 11:45:13;;;;;;;60.30;32.42;;;15.70;69.00;;;;;;4771198;30;20048;-76
2023/02/22 11:47:51;;;;;;;61.45;33.35;;;15.80;68.90;;;;;;4771593;30;20040;-74
2023/02/22 11:50:27;;;;;;;54.22;29.33;;;15.90;68.80;;;;;;4771534;30;20104;-74
2023/02/22 11:53:40;;;;;;;50.95;29.58;;;16.00;68.80;;;;;;4775528;30;20060;-74
2023/02/22 11:56:34;;;;;;;60.03;30.42;;;16.00;68.80;;;;;;4764294;30;20128;-75
2023/02/22 11:59:24;;;;;;;53.75;28.88;;;16.20;68.90;;;;;;4774443;30;20055;-72
2023/02/22 12:01:55;;;;;;;51.92;30.52;;;16.20;68.70;;;;;;4775340;30;20056;-73
2023/02/22 12:04:31;;;;;;;54.78;29.00;;;16.30;68.60;;;;;;4774958;30;20051;-73
2023/02/22 12:07:21;;;;;;;52.28;29.45;;;16.30;68.60;;;;;;4774982;30;20359;-73
2023/02/22 12:09:59;;;;;;;52.65;27.60;;;16.30;68.60;;;;;;4774167;30;20087;-73
2023/02/22 12:12:34;;;;;;;47.95;28.05;;;16.30;67.20;;;;;;4775142;30;20062;-72
2023/02/22 12:15:26;;;;;;;47.30;27.02;;;16.30;68.60;;;;;;4775278;30;20361;-73
2023/02/22 12:18:17;;;;;;;45.25;27.83;;;16.20;68.80;;;;;;4774344;30;20464;-72
2023/02/22 12:20:52;;;;;;;51.33;26.77;;;16.20;68.80;;;;;;4773603;30;20051;-73
2023/02/22 12:23:36;;;;;;;41.25;26.30;;;16.20;68.70;;;;;;4774925;30;20066;-77
2023/02/22 12:26:07;;;;;;;45.83;27.05;;;16.20;68.70;;;;;;4773763;30;20398;-80
2023/02/22 12:28:34;;;;;;;45.45;28.35;;;16.20;68.70;;;;;;4773775;30;20148;-73
2023/02/22 12:31:18;;;;;;;46.92;27.85;;;16.10;68.60;;;;;;4788098;29;20428;-76
2023/02/22 12:34:25;;;;;;;41.10;25.60;;;16.10;68.60;;;;;;4788446;30;20055;-76
2023/02/22 12:37:00;;;;;;;42.30;25.20;;;16.00;68.40;;;;;;4773735;30;20080;-78
2023/02/22 12:39:31;;;;;;;41.10;24.40;;;16.10;68.50;;;;;;4774318;30;20401;-76
2023/02/22 12:42:02;;;;;;;42.25;26.98;;;16.10;68.40;;;;;;4773885;30;20128;-74
2023/02/22 12:44:36;;;;;;;40.22;24.67;;;16.00;68.70;;;;;;4774296;30;20055;-73
2023/02/22 12:47:04;;;;;;;39.95;25.23;;;16.00;68.60;;;;;;4773524;30;20136;-78
2023/02/22 12:49:40;;;;;;;45.58;24.27;;;16.00;68.50;;;;;;4773385;30;20051;-76
2023/02/22 12:52:08;;;;;;;48.42;25.73;;;16.10;68.60;;;;;;4773695;30;20129;-77
2023/02/22 12:55:00;;;;;;;39.45;23.40;;;16.10;68.70;;;;;;4773760;30;20464;-76
2023/02/22 12:57:43;;;;;;;45.17;24.75;;;16.10;68.70;;;;;;4773746;30;20048;-74
2023/02/22 13:00:25;;;;;;;39.72;25.15;;;16.10;68.60;;;;;;4787326;29;20056;-76
2023/02/22 13:03:02;;;;;;;40.22;23.52;;;16.10;68.60;;;;;;4772527;30;20083;-77
2023/02/22 13:05:37;;;;;;;40.90;23.75;;;16.20;68.90;;;;;;4772678;30;20129;-75
2023/02/22 13:08:35;;;;;;;50.60;23.08;;;16.20;69.10;;;;;;4773298;30;20467;-75
2023/02/22 13:11:10;;;;;;;40.97;24.02;;;16.20;69.30;;;;;;4773549;30;20062;-74
2023/02/22 13:14:04;;;;;;;34.80;22.23;;;16.20;69.30;;;;;;4773556;30;20475;-75
2023/02/22 13:16:44;;;;;;;37.65;21.98;;;16.20;69.40;;;;;;4773366;30;20051;-77
2023/02/22 13:19:22;;;;;;;37.03;22.95;;;16.30;69.50;;;;;;4773383;30;20059;-77
2023/02/22 13:21:54;;;;;;;40.15;22.20;;;16.30;69.60;;;;;;4773622;30;20063;-75
2023/02/22 13:25:12;;;;;;;35.70;22.40;;;16.30;69.50;;;;;;4773440;30;20047;-76
2023/02/22 13:27:43;;;;;;;35.05;22.95;;;16.30;69.30;;;;;;4735278;30;20087;-74
2023/02/22 13:30:38;;;;;;;34.67;22.25;;;16.30;69.20;;;;;;4766724;30;20095;-74
2023/02/22 13:33:09;;;;;;;37.50;21.58;;;16.30;68.90;;;;;;4747710;30;20364;-75
2023/02/22 13:35:43;;;;;;;35.40;21.48;;;16.30;69.00;;;;;;4773897;30;20058;-73
2023/02/22 13:38:29;;;;;;;;;;;16.30;69.10;;;;;;4773535;30;20047;-77
2023/02/22 13:41:14;;;;;;;35.50;22.45;;;16.30;70.40;;;;;;4773361;30;20339;-74
2023/02/22 13:44:18;;;;;;;34.78;21.85;;;16.30;70.10;;;;;;4772915;30;20442;-76
2023/02/22 13:47:01;;;;;;;34.17;20.52;;;16.30;70.30;;;;;;4772772;30;20063;-77
2023/02/22 13:50:05;;;;;;;37.53;22.42;;;16.30;71.00;;;;;;4772375;30;20107;-78
2023/02/22 13:52:36;;;;;;;36.05;21.40;;;16.30;71.20;;;;;;4772932;30;20063;-76
2023/02/22 13:55:10;;;;;;;39.30;21.98;;;16.30;70.90;;;;;;4771888;30;20063;-77
2023/02/22 13:57:49;;;;;;;37.17;21.25;;;16.30;70.80;;;;;;4766505;30;20055;-77
2023/02/22 14:00:16;;;;;;;39.00;22.30;;;16.30;70.80;;;;;;4789149;30;20055;-79
2023/02/22 14:03:02;;;;;;;44.53;22.20;;;16.30;70.90;;;;;;4771073;30;20059;-77
2023/02/22 14:05:41;;;;;;;35.67;21.67;;;16.30;71.00;;;;;;4771815;30;20134;-79
2023/02/22 14:08:26;;;;;;;34.40;20.80;;;16.30;71.00;;;;;;4786361;30;20066;-77
2023/02/22 14:10:56;;;;;;;32.42;20.52;;;16.30;70.90;;;;;;4768617;30;20070;-78
2023/02/22 14:13:25;;;;;;;37.40;21.73;;;16.30;70.80;;;;;;4773071;30;20052;-78
2023/02/22 14:16:00;;;;;;;40.50;22.17;;;16.30;70.80;;;;;;4783818;30;20541;-81
2023/02/22 14:18:32;;;;;;;38.50;23.52;;;16.30;70.50;;;;;;4772023;30;20478;-80
2023/02/22 14:21:10;;;;;;;41.50;24.43;;;16.30;70.40;;;;;;4787283;29;20059;-79
2023/02/22 14:23:41;;;;;;;43.85;24.73;;;16.30;71.40;;;;;;4769815;30;20040;-79
2023/02/22 14:26:18;;;;;;;42.17;22.98;;;16.20;71.50;;;;;;4770851;30;20052;-79
2023/02/22 14:28:48;;;;;;;38.83;22.92;;;16.30;71.50;;;;;;4772048;30;20139;-79
2023/02/22 14:31:19;;;;;;;34.72;22.55;;;16.20;71.50;;;;;;4769169;30;20058;-81
2023/02/22 14:34:16;;;;;;;37.38;24.15;;;16.20;71.40;;;;;;4755774;30;20035;-81
2023/02/22 14:36:51;;;;;;;40.95;26.13;;;16.20;72.80;;;;;;4768117;30;20050;-81
2023/02/22 14:39:23;;;;;;;38.83;21.98;;;16.30;74.50;;;;;;4765339;30;20121;-81
2023/02/22 14:42:01;;;;;;;42.25;21.75;;;16.30;73.60;;;;;;4785663;30;20106;-79
2023/02/22 14:44:51;;;;;;;43.13;23.33;;;16.30;72.50;;;;;;4786041;29;20109;-80
2023/02/22 14:47:21;;;;;;;44.75;22.77;;;16.30;72.20;;;;;;4738154;30;20063;-80
2023/02/22 14:49:53;;;;;;;42.95;22.35;;;16.20;72.20;;;;;;4766750;30;20124;-83
2023/02/22 14:52:33;;;;;;;45.78;24.00;;;16.30;72.10;;;;;;4731082;30;20063;-81
2023/02/22 14:55:20;;;;;;;46.42;23.30;;;16.20;72.00;;;;;;4728118;30;20381;-82
2023/02/22 14:58:01;;;;;;;45.33;24.05;;;16.20;72.00;;;;;;4745961;30;20056;-85
2023/02/22 15:00:40;;;;;;;42.28;20.98;;;16.20;72.00;;;;;;4764618;30;20063;-82
2023/02/22 15:03:37;;;;;;;48.65;23.23;;;16.20;72.20;;;;;;4736397;30;20048;-82
2023/02/22 15:06:05;;;;;;;36.13;21.70;;;16.20;72.20;;;;;;4733753;30;20041;-79
2023/02/22 15:08:33;;;;;;;43.00;21.65;;;16.20;72.20;;;;;;4734260;30;20064;-82
2023/02/22 15:11:01;;;;;;;38.70;21.75;;;16.20;72.20;;;;;;4735890;30;20063;-81
2023/02/22 15:13:31;;;;;;;63.92;24.50;;;16.20;72.10;;;;;;4735979;30;20052;-81
2023/02/22 15:16:07;;;;;;;40.28;22.95;;;16.20;71.90;;;;;;4749473;30;20095;-81
2023/02/22 15:18:39;;;;;;;46.58;24.10;;;16.10;71.50;;;;;;4735805;30;20559;-80
2023/02/22 15:21:16;;;;;;;51.00;23.67;;;16.20;71.10;;;;;;4766316;30;20139;-80
2023/02/22 15:23:54;;;;;;;40.60;24.42;;;16.20;70.70;;;;;;4733762;30;20067;-86
2023/02/22 15:26:30;;;;;;;42.47;22.65;;;16.20;70.50;;;;;;4763450;30;20049;-73
2023/02/22 15:28:57;;;;;;;40.72;23.27;;;16.20;70.50;;;;;;4738751;30;20056;-81
2023/02/22 15:34:30;;;;;;;39.25;23.02;;;16.20;70.60;;;;;;4726457;30;20053;-77
2023/02/22 15:37:32;;;;;;;41.03;22.33;;;16.20;70.90;;;;;;4739492;30;20126;-82
2023/02/22 15:40:13;;;;;;;44.13;21.67;;;16.20;70.50;;;;;;4739965;30;20112;-81
2023/02/22 15:42:51;;;;;;;44.45;21.98;;;16.20;70.80;;;;;;4724110;30;20051;-79
2023/02/22 15:45:23;;;;;;;44.92;21.83;;;16.30;71.50;;;;;;4754285;30;20058;-81
2023/02/22 15:47:50;;;;;;;48.90;21.80;;;16.30;71.20;;;;;;4753527;30;20148;-81
2023/02/22 15:59:04;;;;;;;41.53;21.50;;;16.30;71.70;;;;;;4741476;30;20456;-82
2023/02/22 16:13:20;;;;;;;42.10;21.83;;;16.20;72.70;;;;;;4719324;30;20118;-81
2023/02/22 16:16:05;;;;;;;43.92;23.08;;;16.20;72.90;;;;;;4719799;30;20063;-77
2023/02/22 16:18:40;;;;;;;45.20;27.52;;;16.20;72.00;;;;;;4721403;30;20210;-78
2023/02/22 16:21:52;;;;;;;47.15;25.20;;;16.20;71.00;;;;;;4721595;30;20049;-81
2023/02/22 16:25:25;;;;;;;;;;;;;;;;;;;;;
2023/02/22 16:28:29;;;;;;;59.15;26.23;;;16.10;69.90;;;;;;4724419;30;20056;-82
2023/02/22 16:30:59;;;;;;;61.25;27.55;;;16.10;70.00;;;;;;4738252;30;20053;-85
2023/02/22 16:33:28;;;;;;;57.75;26.27;;;16.10;70.10;;;;;;4737270;30;20380;-82
2023/02/22 16:35:55;;;;;;;57.20;26.50;;;16.10;70.10;;;;;;4738232;30;20064;-81
2023/02/22 16:38:23;;;;;;;60.03;26.10;;;16.10;70.20;;;;;;4737735;30;20064;-82
2023/02/22 16:40:53;;;;;;;52.28;24.45;;;16.10;70.30;;;;;;4737973;30;20048;-81
2023/02/22 16:43:26;;;;;;;52.97;24.42;;;16.10;70.50;;;;;;4752346;30;20562;-82
2023/02/22 16:45:55;;;;;;;46.10;24.50;;;16.10;70.50;;;;;;4722778;30;20056;-82
2023/02/22 16:48:37;;;;;;;50.28;23.98;;;16.10;70.60;;;;;;4752259;30;20280;-81
2023/02/22 16:51:18;;;;;;;51.20;24.00;;;16.10;70.60;;;;;;4738191;30;20110;-83
2023/02/22 16:53:47;;;;;;;46.25;24.30;;;16.20;70.90;;;;;;4762977;30;20055;-81
2023/02/22 16:56:16;;;;;;;47.58;23.50;;;16.20;71.40;;;;;;4751981;30;20456;-85
2023/02/22 16:58:44;;;;;;;45.75;23.42;;;16.20;71.30;;;;;;4755211;30;20044;-81
2023/02/22 17:01:11;;;;;;;46.83;23.10;;;16.20;71.40;;;;;;4755238;30;20121;-81
2023/02/22 17:03:37;;;;;;;41.13;22.55;;;16.20;71.50;;;;;;4756145;30;20060;-81
2023/02/22 17:06:03;;;;;;;50.20;22.70;;;16.20;71.60;;;;;;4761417;30;20532;-85
2023/02/22 17:08:30;;;;;;;57.40;24.17;;;16.20;71.60;;;;;;4787343;29;20051;-76
2023/02/22 17:10:56;;;;;;;48.40;21.42;;;16.30;71.80;;;;;;4773678;30;20058;-84
2023/02/22 17:13:25;;;;;;;50.08;24.05;;;16.20;71.90;;;;;;4758168;30;20074;-86
2023/02/22 17:15:53;;;;;;;50.40;23.65;;;16.20;72.00;;;;;;4743214;30;20048;-84
2023/02/22 17:18:23;;;;;;;51.72;23.45;;;16.20;72.20;;;;;;4757766;30;20040;-82
2023/02/22 17:20:50;;;;;;;64.60;24.35;;;16.20;72.20;;;;;;4773114;30;20044;-79
2023/02/22 17:23:17;;;;;;;53.63;23.25;;;16.20;72.20;;;;;;4757961;30;20062;-76
2023/02/22 17:25:55;;;;;;;53.03;24.95;;;16.20;72.40;;;;;;4772465;30;20116;-81
2023/02/22 17:28:23;;;;;;;56.67;25.48;;;16.20;72.40;;;;;;4772381;30;20048;-82
2023/02/22 17:30:50;;;;;;;59.15;23.02;;;16.20;72.60;;;;;;4751197;30;20362;-82
2023/02/22 17:33:20;;;;;;;52.90;23.52;;;16.20;72.80;;;;;;4774346;30;20059;-83
2023/02/22 17:35:46;;;;;;;59.33;23.42;;;16.20;72.70;;;;;;4786679;29;20043;-83
2023/02/22 17:38:17;;;;;;;50.38;24.30;;;16.10;72.50;;;;;;4790180;29;20141;-84
2023/02/22 17:40:44;;;;;;;53.22;23.73;;;16.10;72.50;;;;;;4775199;30;20043;-81
2023/02/22 17:43:09;;;;;;;51.28;23.75;;;16.10;72.50;;;;;;4775403;30;20355;-82
2023/02/22 17:45:40;;;;;;;61.40;24.58;;;16.10;72.60;;;;;;4790175;29;20058;-84
2023/02/22 17:48:07;;;;;;;46.65;21.65;;;16.10;72.40;;;;;;4789609;29;20047;-82
2023/02/22 17:50:36;;;;;;;47.47;22.95;;;16.10;72.30;;;;;;4789751;29;20130;-80
2023/02/22 17:53:02;;;;;;;40.78;20.95;;;16.10;72.10;;;;;;4803391;29;20070;-81
2023/02/22 17:55:29;;;;;;;53.22;23.42;;;16.00;72.00;;;;;;4775033;30;20112;-83
2023/02/22 17:57:59;;;;;;;44.03;22.13;;;16.00;71.80;;;;;;4774877;29;20031;-84
2023/02/22 18:00:33;;;;;;;45.10;23.45;;;16.00;71.70;;;;;;4790359;30;20082;-83
2023/02/22 18:03:05;;;;;;;47.97;22.02;;;16.00;71.60;;;;;;4804881;29;20402;-84
2023/02/22 18:05:32;;;;;;;43.22;21.08;;;15.90;71.60;;;;;;4775010;30;20048;-82
2023/02/22 18:07:59;;;;;;;51.33;22.15;;;15.90;71.80;;;;;;4789701;30;20053;-81
2023/02/22 18:10:25;;;;;;;45.92;22.45;;;15.90;71.90;;;;;;4789708;29;20042;-83
2023/02/22 18:12:52;;;;;;;43.28;21.83;;;15.90;71.90;;;;;;4803407;29;20043;-84
2023/02/22 18:15:18;;;;;;;42.60;22.58;;;15.90;71.90;;;;;;4803855;29;20063;-82
2023/02/22 18:17:45;;;;;;;41.80;21.30;;;15.90;71.90;;;;;;4774857;30;20044;-78
2023/02/22 18:20:13;;;;;;;41.97;21.25;;;15.90;72.00;;;;;;4789458;30;20058;-81
2023/02/22 18:22:43;;;;;;;43.97;21.33;;;15.80;72.10;;;;;;4804245;29;20126;-81
2023/02/22 18:25:10;;;;;;;53.92;21.92;;;15.80;72.10;;;;;;4789302;29;20051;-81
2023/02/22 18:27:36;;;;;;;41.33;20.10;;;15.70;72.50;;;;;;4770696;30;20054;-83
2023/02/22 18:30:04;;;;;;;41.28;20.63;;;15.60;73.00;;;;;;4789159;29;20051;-83
2023/02/22 18:32:30;;;;;;;49.97;19.52;;;15.50;73.40;;;;;;4789350;29;20078;-83
2023/02/22 18:34:57;;;;;;;38.20;19.13;;;15.40;73.60;;;;;;4804440;29;20502;-83
2023/02/22 18:37:26;;;;;;;46.25;20.60;;;15.40;73.90;;;;;;4787344;30;20051;-82
2023/02/22 18:39:56;;;;;;;35.15;19.75;;;15.30;74.20;;;;;;4773738;30;20051;-84
2023/02/22 18:42:24;;;;;;;37.28;19.60;;;15.20;74.40;;;;;;4789378;29;20047;-82
2023/02/22 18:44:50;;;;;;;40.45;20.20;;;15.20;74.50;;;;;;4789146;30;20058;-83
2023/02/22 18:47:17;;;;;;;41.90;20.65;;;15.20;75.20;;;;;;4789106;29;20054;-81
2023/02/22 18:49:42;;;;;;;41.10;20.42;;;15.20;74.60;;;;;;4804194;29;20047;-80
2023/02/22 18:52:11;;;;;;;41.03;18.75;;;15.20;74.60;;;;;;4803627;29;20066;-81
2023/02/22 18:54:41;;;;;;;42.53;20.23;;;15.20;74.80;;;;;;4773848;30;20130;-82
2023/02/22 18:57:11;;;;;;;39.75;20.25;;;15.20;74.80;;;;;;4789376;30;20095;-83
2023/02/22 18:59:41;;;;;;;38.15;19.25;;;15.20;74.80;;;;;;4774507;30;20137;-81
2023/02/22 19:02:12;;;;;;;31.70;19.35;;;15.10;74.90;;;;;;4802814;29;20051;-82
2023/02/22 19:04:38;;;;;;;33.38;19.52;;;15.10;74.80;;;;;;4804236;29;20047;-81
2023/02/22 19:07:05;;;;;;;32.45;18.83;;;15.10;74.90;;;;;;4789166;30;20055;-84
2023/02/22 19:09:30;;;;;;;33.70;18.98;;;15.10;74.90;;;;;;4804401;29;20051;-82
2023/02/22 19:11:56;;;;;;;37.35;18.70;;;15.10;74.90;;;;;;4789053;29;20055;-83
2023/02/22 19:14:22;;;;;;;35.08;18.63;;;15.10;74.70;;;;;;4788620;29;20047;-77
2023/02/22 19:16:51;;;;;;;32.42;18.08;;;15.20;74.50;;;;;;4774279;30;20332;-76